Terminal Aerodrome Forecast
Issued by NWS

Home | Current Version | Previous Version | Text Only | Print | Product List | Glossary On
Versions: 1 2 3 4 5 6 7 8 9 10 11 12 13 14 15
805
FTPA31 PHFO 271738
TAFHOG
TAF
PHOG 271738Z 2718/2818 04010KT P6SM FEW030 SCT060
     FM272000 04014G23KT P6SM FEW030 SCT060
     FM280500 05008KT P6SM SCT030 SCT060
      AMD LTD TO VIS AND WIND 2809/2816=

USA.gov is the U.S. government's official web portal to all federal, state and local government web resources and services.